Time;durP1;ratioP1;P1;durP2;ratioP2;P2;SDS_P1;SDS_P2;PMS_P1;PMS_P2;Temp;Humidity;BMP_temperature;BMP_pressure;BME280_temperature;BME280_humidity;BME280_pressure;Samples;Min_cycle;Max_cycle;Signal;HPM_P1;HPM_P2
2021/01/03 00:00:21;;;;;;;145.38;55.63;;;;;;;-0.16;86.20;100584.56;1765100;80;21145;-89
2021/01/03 00:02:49;;;;;;;129.72;49.73;;;;;;;-0.17;86.22;100583.33;1756194;80;21140;-89
2021/01/03 00:05:17;;;;;;;149.87;58.30;;;;;;;-0.18;86.21;100584.29;1756105;80;21671;-89
2021/01/03 00:07:43;;;;;;;154.87;59.13;;;;;;;-0.17;86.21;100584.64;1766668;81;21243;-88
2021/01/03 00:10:10;;;;;;;165.25;66.80;;;;;;;-0.15;86.22;100580.16;1767274;81;21186;-88
2021/01/03 00:12:37;;;;;;;160.37;64.90;;;;;;;-0.14;86.23;100570.06;1792957;79;21143;-89
2021/01/03 00:15:11;;;;;;;160.00;59.33;;;;;;;-0.15;86.22;100563.13;1799096;79;21209;-87
2021/01/03 00:17:38;;;;;;;124.45;44.80;;;;;;;-0.15;86.23;100563.13;1798658;79;21214;-89
2021/01/03 00:20:08;;;;;;;145.97;53.00;;;;;;;-0.16;86.23;100565.37;1799004;79;21198;-89
2021/01/03 00:22:34;;;;;;;132.07;49.13;;;;;;;-0.16;86.25;100564.05;1798941;79;21139;-88
2021/01/03 00:25:00;;;;;;;141.37;49.53;;;;;;;-0.19;86.26;100566.41;1798771;79;21175;-88
2021/01/03 00:27:27;;;;;;;146.20;56.23;;;;;;;-0.17;86.28;100568.92;1798485;79;21254;-89
2021/01/03 00:29:53;;;;;;;142.32;54.85;;;;;;;-0.16;86.28;100571.92;1798764;79;21171;-89
2021/01/03 00:32:19;;;;;;;145.65;52.33;;;;;;;-0.13;86.29;100571.25;1798850;79;21572;-87
2021/01/03 00:34:46;;;;;;;150.18;56.15;;;;;;;-0.10;86.29;100576.77;1798562;79;21162;-87
2021/01/03 00:37:12;;;;;;;160.32;56.10;;;;;;;-0.11;86.30;100575.10;1791880;79;21174;-87
2021/01/03 00:39:38;;;;;;;144.57;52.43;;;;;;;-0.11;86.30;100573.80;1778116;79;22054;-87
2021/01/03 00:42:05;;;;;;;148.30;53.75;;;;;;;-0.11;86.29;100573.80;1798039;79;21199;-88
2021/01/03 00:44:32;;;;;;;144.07;56.95;;;;;;;-0.09;86.30;100572.75;1784069;79;21179;-87
2021/01/03 00:46:58;;;;;;;141.82;52.30;;;;;;;-0.08;86.33;100564.42;1732804;82;21234;-87
2021/01/03 00:49:24;;;;;;;143.55;52.03;;;;;;;-0.05;86.31;100576.02;1733103;82;21196;-88
2021/01/03 00:51:51;;;;;;;141.15;55.78;;;;;;;-0.03;86.34;100574.97;1798790;79;22166;-87
2021/01/03 00:54:17;;;;;;;153.85;58.30;;;;;;;-0.02;86.34;100574.03;1798403;79;21175;-88
2021/01/03 00:56:43;;;;;;;149.30;57.73;;;;;;;0.01;86.33;100580.85;1798755;79;21151;-89
2021/01/03 00:59:09;;;;;;;156.40;60.03;;;;;;;-0.01;86.35;100578.34;1798747;79;21155;-88
2021/01/03 01:01:36;;;;;;;153.45;56.42;;;;;;;-0.03;86.37;100574.12;1780530;79;21139;-88
2021/01/03 01:04:02;;;;;;;148.15;54.05;;;;;;;-0.04;86.36;100565.91;1767081;81;21214;-88
2021/01/03 01:06:28;;;;;;;150.12;56.20;;;;;;;-0.04;86.36;100559.36;1761147;81;21151;-85
2021/01/03 01:08:55;;;;;;;150.10;59.40;;;;;;;-0.04;86.36;100555.42;1748264;80;21147;-87
2021/01/03 01:11:24;;;;;;;145.55;55.83;;;;;;;-0.03;86.37;100551.84;1778044;80;21129;-87
2021/01/03 01:13:51;;;;;;;152.05;57.60;;;;;;;-0.04;86.36;100552.34;1748868;80;21128;-87
2021/01/03 01:16:17;;;;;;;148.62;58.13;;;;;;;-0.03;86.37;100551.38;1753015;80;21984;-88
2021/01/03 01:18:45;;;;;;;165.03;58.35;;;;;;;-0.02;86.36;100543.05;1765479;80;21194;-88
2021/01/03 01:21:11;;;;;;;160.57;53.85;;;;;;;0.00;86.41;100547.73;1758014;80;21203;-87
2021/01/03 01:23:37;;;;;;;162.30;60.40;;;;;;;-0.02;86.39;100552.22;1787041;80;21719;-89
2021/01/03 01:26:04;;;;;;;152.38;55.63;;;;;;;-0.04;86.37;100544.47;1787039;80;21144;-88
2021/01/03 01:28:30;;;;;;;163.07;62.60;;;;;;;-0.04;86.40;100552.34;1787238;80;21197;-88
2021/01/03 01:30:57;;;;;;;143.95;51.68;;;;;;;-0.05;86.38;100556.35;1778197;80;21231;-89
2021/01/03 01:33:25;;;;;;;151.85;53.70;;;;;;;-0.04;86.42;100559.36;1756105;80;21210;-87
2021/01/03 01:35:51;;;;;;;143.87;51.83;;;;;;;-0.03;86.39;100561.02;1755772;81;21155;-88
2021/01/03 01:38:20;;;;;;;155.22;57.20;;;;;;;-0.02;86.38;100565.33;1777750;80;21187;-87
2021/01/03 01:40:47;;;;;;;181.32;72.85;;;;;;;-0.01;86.42;100556.53;1786816;80;22109;-87
2021/01/03 01:43:16;;;;;;;190.57;69.30;;;;;;;0.03;86.44;100552.78;1787068;80;21569;-88
2021/01/03 01:45:44;;;;;;;211.67;77.17;;;;;;;0.04;86.41;100541.80;1787348;80;21119;-89
2021/01/03 01:48:24;;;;;;;181.37;63.65;;;;;;;0.06;86.43;100546.48;1786660;80;21144;-88
2021/01/03 01:50:58;;;;;;;195.72;76.33;;;;;;;0.08;86.45;100542.81;1786561;80;21172;-87
2021/01/03 01:53:32;;;;;;;137.97;48.10;;;;;;;0.09;86.46;100540.58;1765017;80;22088;-88
2021/01/03 01:56:09;;;;;;;208.05;71.57;;;;;;;0.07;86.45;100535.87;1777889;80;21167;-88
2021/01/03 01:59:00;;;;;;;153.97;54.00;;;;;;;0.09;86.46;100525.30;1765401;80;21578;-87
2021/01/03 02:01:46;;;;;;;152.55;56.18;;;;;;;0.10;86.46;100525.22;1747907;80;21203;-87
2021/01/03 02:04:32;;;;;;;154.32;57.40;;;;;;;0.10;86.47;100517.36;1742747;80;21692;-87
2021/01/03 02:07:11;;;;;;;157.65;54.08;;;;;;;0.11;86.47;100514.23;1752997;81;22202;-87
2021/01/03 02:10:06;;;;;;;138.75;48.48;;;;;;;0.08;86.48;100516.59;1763287;80;21207;-87
2021/01/03 02:12:37;;;;;;;146.07;51.90;;;;;;;0.08;86.50;100523.62;1779870;80;21128;-91
2021/01/03 02:15:21;;;;;;;141.18;51.95;;;;;;;0.05;86.49;100516.80;1757372;80;21191;-90
2021/01/03 02:17:48;;;;;;;151.32;50.08;;;;;;;0.05;86.49;100506.31;1761615;80;21660;-90
2021/01/03 02:20:15;;;;;;;131.63;50.70;;;;;;;0.07;86.53;100504.42;1784095;80;21211;-90
2021/01/03 02:22:49;;;;;;;135.30;52.88;;;;;;;0.07;86.52;100507.05;1762309;80;21131;-90
2021/01/03 02:25:15;;;;;;;154.68;56.15;;;;;;;0.07;86.53;100509.66;1774434;80;21168;-90
2021/01/03 02:28:09;;;;;;;156.50;54.75;;;;;;;0.05;86.56;100501.07;1757457;80;21140;-90
2021/01/03 02:30:35;;;;;;;132.20;43.08;;;;;;;0.05;86.56;100508.94;1756211;80;21624;-90
2021/01/03 02:33:28;;;;;;;134.95;47.67;;;;;;;0.06;86.58;100509.78;1726607;81;21577;-90
2021/01/03 02:35:58;;;;;;;134.93;46.60;;;;;;;0.07;86.60;100514.09;1784024;80;21124;-90
2021/01/03 02:38:26;;;;;;;134.00;47.33;;;;;;;0.07;86.62;100509.66;1756153;81;21173;-90
2021/01/03 02:40:53;;;;;;;128.93;43.58;;;;;;;0.09;86.61;100515.66;1756580;80;21136;-90
2021/01/03 02:43:19;;;;;;;148.15;51.05;;;;;;;0.10;86.62;100513.42;1756726;81;21644;-90
2021/01/03 02:45:46;;;;;;;126.45;47.27;;;;;;;0.14;86.62;100508.32;1768300;80;21208;-87
2021/01/03 02:48:21;;;;;;;138.72;48.40;;;;;;;0.17;86.64;100510.77;1777357;80;21601;-87
2021/01/03 02:50:48;;;;;;;142.80;49.75;;;;;;;0.18;86.64;100508.48;1770016;80;21116;-87
2021/01/03 02:53:15;;;;;;;146.50;51.63;;;;;;;0.17;86.66;100513.39;1787444;80;21143;-88
2021/01/03 02:55:41;;;;;;;152.02;50.45;;;;;;;0.17;86.66;100506.83;1787757;80;21112;-87
2021/01/03 02:58:08;;;;;;;151.20;52.35;;;;;;;0.15;86.67;100512.63;1787508;80;21137;-87
2021/01/03 03:00:37;;;;;;;127.97;44.35;;;;;;;0.16;86.67;100509.55;1787662;80;21167;-87
2021/01/03 03:03:05;;;;;;;145.00;50.17;;;;;;;0.14;86.68;100508.32;1787444;80;21159;-87
2021/01/03 03:05:31;;;;;;;198.07;66.67;;;;;;;0.15;86.70;100504.77;1787522;80;21128;-87
2021/01/03 03:07:58;;;;;;;141.03;50.52;;;;;;;0.16;86.71;100502.98;1759419;80;21144;-87
2021/01/03 03:10:24;;;;;;;139.62;50.23;;;;;;;0.15;86.70;100502.14;1756638;81;21195;-87
2021/01/03 03:12:53;;;;;;;184.80;60.75;;;;;;;0.15;86.72;100494.28;1766191;79;21203;-88
2021/01/03 03:15:21;;;;;;;160.40;56.48;;;;;;;0.17;86.73;100491.57;1763082;80;21124;-88
2021/01/03 03:17:48;;;;;;;168.45;55.60;;;;;;;0.16;86.74;100485.48;1748545;82;21279;-88
2021/01/03 03:20:15;;;;;;;139.80;50.28;;;;;;;0.17;86.72;100479.30;1756633;81;21179;-87
2021/01/03 03:22:42;;;;;;;126.00;47.45;;;;;;;0.16;86.74;100477.61;1748686;82;21193;-88
2021/01/03 03:25:09;;;;;;;176.72;60.92;;;;;;;0.19;86.77;100477.41;1756623;81;21196;-88
2021/01/03 03:27:36;;;;;;;211.90;70.40;;;;;;;0.17;86.75;100476.68;1748748;82;21184;-88
2021/01/03 03:30:08;;;;;;;125.42;43.98;;;;;;;0.19;86.77;100472.16;1756789;81;21133;-88
2021/01/03 03:32:34;;;;;;;243.97;88.35;;;;;;;0.20;86.76;100468.61;1756657;81;21850;-88
2021/01/03 03:35:00;;;;;;;181.82;60.00;;;;;;;0.20;86.77;100468.61;1723000;81;21215;-88
2021/01/03 03:37:27;;;;;;;127.27;45.30;;;;;;;0.22;86.79;100471.11;1756576;81;21164;-87
2021/01/03 03:39:53;;;;;;;146.02;51.88;;;;;;;0.20;86.81;100476.47;1756644;81;21633;-87
2021/01/03 03:42:20;;;;;;;142.32;45.88;;;;;;;0.19;86.81;100476.09;1761177;80;21621;-87
2021/01/03 03:44:46;;;;;;;137.32;48.60;;;;;;;0.20;86.82;100477.78;1781341;80;21148;-88
2021/01/03 03:47:12;;;;;;;179.85;61.80;;;;;;;0.22;86.82;100478.51;1784272;79;21190;-87
2021/01/03 03:49:39;;;;;;;138.43;49.55;;;;;;;0.21;86.82;100474.20;1756668;81;21180;-87
2021/01/03 03:52:06;;;;;;;141.90;50.08;;;;;;;0.21;86.83;100466.33;1756921;81;21148;-87
2021/01/03 03:54:33;;;;;;;144.80;50.28;;;;;;;0.24;86.86;100471.39;1756495;81;21136;-87
2021/01/03 03:57:02;;;;;;;146.62;51.98;;;;;;;0.25;86.86;100457.78;1756932;80;21199;-86
2021/01/03 03:59:29;;;;;;;178.40;63.85;;;;;;;0.24;86.87;100462.22;1771214;80;21640;-86
2021/01/03 04:01:55;;;;;;;154.03;53.35;;;;;;;0.24;86.88;100454.35;1764689;80;21197;-86
2021/01/03 04:04:22;;;;;;;139.37;47.83;;;;;;;0.23;86.90;100453.98;1759303;80;21113;-87
2021/01/03 04:06:49;;;;;;;140.90;47.80;;;;;;;0.22;86.92;100445.73;1756660;81;21117;-86
2021/01/03 04:09:15;;;;;;;130.63;45.35;;;;;;;0.22;86.94;100435.24;1756789;80;21220;-86
2021/01/03 04:11:43;;;;;;;128.20;41.65;;;;;;;0.23;86.93;100442.17;1756323;81;21571;-87
2021/01/03 04:14:11;;;;;;;125.80;44.27;;;;;;;0.23;86.94;100442.17;1747395;80;21185;-86
2021/01/03 04:16:47;;;;;;;122.55;43.13;;;;;;;0.23;86.96;100431.69;1756637;81;21575;-86
2021/01/03 04:19:14;;;;;;;123.70;43.95;;;;;;;0.26;86.98;100426.23;1761143;78;21605;-86
2021/01/03 04:21:41;;;;;;;110.10;38.88;;;;;;;0.25;86.99;100427.16;1779546;80;21593;-85
2021/01/03 04:24:08;;;;;;;136.68;46.83;;;;;;;0.25;87.02;100442.90;1787683;80;21163;-86
2021/01/03 04:26:34;;;;;;;144.07;47.05;;;;;;;0.24;87.02;100445.64;1787808;80;21175;-85
2021/01/03 04:29:00;;;;;;;136.65;47.20;;;;;;;0.24;87.05;100443.02;1787403;80;21172;-86
2021/01/03 04:31:26;;;;;;;110.88;37.13;;;;;;;0.24;87.05;100436.00;1787773;80;21144;-86
2021/01/03 04:33:53;;;;;;;135.22;43.92;;;;;;;0.24;87.07;100436.00;1781102;80;21525;-87
2021/01/03 04:36:19;;;;;;;130.18;40.12;;;;;;;0.25;87.07;100437.66;1756311;80;21199;-86
2021/01/03 04:38:46;;;;;;;121.67;41.75;;;;;;;0.28;87.09;100433.51;1755440;81;21195;-87
2021/01/03 04:41:18;;;;;;;114.17;41.33;;;;;;;0.30;87.11;100423.77;1745159;82;21128;-87
2021/01/03 04:43:46;;;;;;;131.35;46.08;;;;;;;0.31;87.12;100418.91;1755529;81;21199;-86
2021/01/03 04:46:12;;;;;;;125.12;44.10;;;;;;;0.34;87.14;100421.31;1755420;81;21123;-87
2021/01/03 04:48:38;;;;;;;123.20;45.88;;;;;;;0.35;87.16;100426.91;1721970;81;21323;-87
2021/01/03 04:51:19;;;;;;;134.57;45.00;;;;;;;0.37;87.17;100429.44;1755522;81;21156;-87
2021/01/03 04:54:11;;;;;;;121.90;40.55;;;;;;;0.35;87.19;100422.16;1755690;81;21184;-86
2021/01/03 04:56:46;;;;;;;115.75;40.85;;;;;;;0.35;87.20;100422.97;1755493;81;21136;-86
2021/01/03 04:59:33;;;;;;;113.92;40.78;;;;;;;0.35;87.20;100432.15;1755480;81;21136;-86
2021/01/03 05:02:27;;;;;;;117.80;38.98;;;;;;;0.36;87.22;100435.15;1755736;81;21240;-86
2021/01/03 05:05:19;;;;;;;123.55;42.73;;;;;;;0.38;87.22;100441.15;1755476;81;21242;-87
2021/01/03 05:07:51;;;;;;;112.62;40.65;;;;;;;0.36;87.24;100427.28;1755328;81;21156;-87
2021/01/03 05:10:22;;;;;;;119.90;42.48;;;;;;;0.38;87.25;100426.72;1755537;81;21158;-88
2021/01/03 05:13:00;;;;;;;116.03;43.17;;;;;;;0.37;87.26;100421.09;1766518;79;21163;-88
2021/01/03 05:15:33;;;;;;;115.67;40.23;;;;;;;0.39;87.28;100436.25;1788159;80;21576;-88
2021/01/03 05:18:01;;;;;;;124.22;44.50;;;;;;;0.38;87.29;100434.59;1795662;79;21134;-86
2021/01/03 05:20:27;;;;;;;109.70;37.90;;;;;;;0.37;87.29;100431.59;1795297;79;21167;-86
2021/01/03 05:22:53;;;;;;;107.12;38.25;;;;;;;0.38;87.32;100435.91;1795625;79;21115;-86
2021/01/03 05:25:22;;;;;;;114.10;38.75;;;;;;;0.36;87.31;100439.08;1795448;79;21529;-86
2021/01/03 05:28:04;;;;;;;80.35;30.70;;;;;;;0.36;87.33;100446.95;1760114;79;21220;-86
2021/01/03 05:30:31;;;;;;;106.90;39.30;;;;;;;0.39;87.34;100444.11;1795577;79;21167;-86
2021/01/03 05:33:07;;;;;;;116.80;39.53;;;;;;;0.42;87.33;100447.02;1795480;79;21155;-86
2021/01/03 05:35:41;;;;;;;120.80;40.70;;;;;;;0.42;87.36;100441.78;1763595;79;21117;-86
2021/01/03 05:38:07;;;;;;;120.10;41.77;;;;;;;0.43;87.37;100443.44;1778578;80;21595;-86
2021/01/03 05:40:42;;;;;;;116.57;42.08;;;;;;;0.42;87.38;100445.21;1779555;80;21200;-88
2021/01/03 05:43:17;;;;;;;129.53;44.83;;;;;;;0.40;87.40;100437.94;1779337;80;21140;-88
2021/01/03 05:46:13;;;;;;;117.82;39.50;;;;;;;0.41;87.41;100440.09;1779456;80;21156;-87
2021/01/03 05:49:03;;;;;;;110.63;39.58;;;;;;;0.46;87.44;100437.51;1811235;78;23483;-88
2021/01/03 05:51:46;;;;;;;121.42;41.30;;;;;;;0.39;87.44;100434.94;1796134;79;21192;-88
2021/01/03 05:54:23;;;;;;;110.25;37.63;;;;;;;0.37;87.46;100431.59;1797113;79;21264;-88
2021/01/03 05:56:49;;;;;;;125.45;40.55;;;;;;;0.38;87.47;100421.94;1793890;79;21171;-88
2021/01/03 05:59:27;;;;;;;123.05;40.95;;;;;;;0.39;87.49;100423.13;1796703;79;21588;-86
2021/01/03 06:02:13;;;;;;;131.90;43.60;;;;;;;0.41;87.49;100413.39;1796815;79;21206;-88
2021/01/03 06:04:39;;;;;;;123.70;44.63;;;;;;;0.41;87.51;100405.52;1763949;79;21593;-87
2021/01/03 06:07:26;;;;;;;127.87;45.73;;;;;;;0.42;87.54;100412.92;1796663;79;21279;-88
2021/01/03 06:09:52;;;;;;;123.22;43.80;;;;;;;0.41;87.56;100408.14;1796812;79;21199;-87
2021/01/03 06:12:25;;;;;;;130.32;42.75;;;;;;;0.40;87.58;100405.61;1796816;79;21131;-88
2021/01/03 06:15:02;;;;;;;120.92;40.98;;;;;;;0.40;87.58;100409.08;1797042;79;21115;-89
2021/01/03 06:17:35;;;;;;;120.37;40.78;;;;;;;0.41;87.60;100404.67;1763873;79;21112;-89
2021/01/03 06:20:14;;;;;;;118.87;38.10;;;;;;;0.42;87.61;100404.55;1797053;79;21308;-87
2021/01/03 06:22:50;;;;;;;111.97;38.85;;;;;;;0.40;87.64;100397.28;1797221;79;21981;-88
2021/01/03 06:25:43;;;;;;;106.05;37.65;;;;;;;0.43;87.65;100397.06;1797043;79;21132;-88
2021/01/03 06:28:26;;;;;;;113.97;39.30;;;;;;;0.43;87.66;100404.94;1768084;79;21142;-86
2021/01/03 06:31:22;;;;;;;112.00;39.98;;;;;;;0.43;87.67;100393.59;1774482;79;21136;-87
2021/01/03 06:34:25;;;;;;;121.22;43.50;;;;;;;0.44;87.68;100403.16;1778208;80;22102;-86
2021/01/03 06:37:03;;;;;;;105.92;37.38;;;;;;;0.44;87.72;100402.69;1775726;80;21592;-86
2021/01/03 06:39:54;;;;;;;107.05;35.60;;;;;;;0.44;87.72;100407.93;1786688;80;21129;-86
2021/01/03 06:42:53;;;;;;;115.35;37.28;;;;;;;0.43;87.72;100398.84;1788526;80;21194;-86
2021/01/03 06:45:28;;;;;;;114.92;39.53;;;;;;;0.42;87.74;100404.55;1785965;80;21589;-87
2021/01/03 06:48:26;;;;;;;112.35;39.33;;;;;;;0.43;87.78;100411.48;1753315;81;22185;-86
2021/01/03 06:51:20;;;;;;;121.17;46.45;;;;;;;0.43;87.78;100399.69;1773803;80;21156;-86
2021/01/03 06:54:16;;;;;;;120.02;44.10;;;;;;;0.43;87.79;100402.31;1780036;80;21148;-86
2021/01/03 06:57:12;;;;;;;122.72;43.08;;;;;;;0.45;87.83;100403.53;1772484;80;21156;-86
2021/01/03 06:59:49;;;;;;;129.53;41.90;;;;;;;0.43;87.85;100401.47;1778756;80;21581;-86
2021/01/03 07:02:17;;;;;;;133.35;40.20;;;;;;;0.42;87.88;100400.63;1779643;80;21248;-86
2021/01/03 07:04:43;;;;;;;113.90;38.15;;;;;;;0.42;87.89;100399.31;1731155;82;21160;-87
2021/01/03 07:07:14;;;;;;;117.95;41.23;;;;;;;0.42;87.89;100399.81;1749664;80;21660;-86
2021/01/03 07:10:05;;;;;;;134.50;45.40;;;;;;;0.42;87.90;100396.69;1780106;80;21624;-86
2021/01/03 07:12:39;;;;;;;125.70;43.35;;;;;;;0.45;87.92;100401.75;1787777;80;21127;-85
2021/01/03 07:15:25;;;;;;;141.50;49.90;;;;;;;0.45;87.95;100399.13;1788027;80;22144;-85
2021/01/03 07:17:57;;;;;;;130.47;46.55;;;;;;;0.43;87.96;100399.69;1785166;78;21211;-85
2021/01/03 07:20:31;;;;;;;142.13;48.35;;;;;;;0.45;87.97;100391.26;1787725;80;21124;-85
2021/01/03 07:23:15;;;;;;;133.18;46.68;;;;;;;0.44;87.99;100402.69;1787455;80;21211;-86
2021/01/03 07:25:53;;;;;;;135.68;45.83;;;;;;;0.44;88.00;100394.81;1786622;80;21147;-85
2021/01/03 07:28:27;;;;;;;122.33;42.73;;;;;;;0.46;88.03;100403.88;1787691;80;21279;-85
2021/01/03 07:31:12;;;;;;;114.17;40.08;;;;;;;0.46;88.05;100404.72;1787877;80;21608;-86
2021/01/03 07:33:50;;;;;;;111.70;39.55;;;;;;;0.49;88.03;100395.31;1787816;80;21143;-86
2021/01/03 07:36:27;;;;;;;113.77;40.08;;;;;;;0.49;88.07;100391.38;1770128;80;21158;-86
2021/01/03 07:39:11;;;;;;;113.42;44.33;;;;;;;0.49;88.08;100390.07;1756778;80;21166;-86
2021/01/03 07:41:38;;;;;;;126.97;46.37;;;;;;;0.53;88.10;100391.20;1756476;81;21277;-87
2021/01/03 07:44:10;;;;;;;127.53;44.77;;;;;;;0.52;88.13;100393.45;1756732;81;21190;-86
2021/01/03 07:46:47;;;;;;;133.45;47.80;;;;;;;0.52;88.13;100389.52;1756618;81;21143;-87
2021/01/03 07:49:27;;;;;;;132.32;47.53;;;;;;;0.55;88.16;100402.41;1758664;80;21664;-87
2021/01/03 07:51:53;;;;;;;111.87;40.93;;;;;;;0.55;88.15;100394.54;1756969;81;21139;-87
2021/01/03 07:54:19;;;;;;;107.07;37.95;;;;;;;0.58;88.18;100395.17;1756596;81;22079;-87
2021/01/03 07:56:47;;;;;;;105.43;40.35;;;;;;;0.60;88.20;100400.32;1756703;81;21217;-87
2021/01/03 07:59:14;;;;;;;111.10;43.23;;;;;;;0.61;88.18;100401.98;1756448;81;21161;-86
2021/01/03 08:01:53;;;;;;;123.72;47.45;;;;;;;0.62;88.21;100399.73;1756714;81;21220;-86
2021/01/03 08:04:28;;;;;;;132.97;52.80;;;;;;;0.64;88.23;100403.07;1756688;81;21516;-86
2021/01/03 08:07:10;;;;;;;115.00;42.93;;;;;;;0.64;88.23;100400.45;1756711;81;21193;-87
2021/01/03 08:09:36;;;;;;;125.95;44.70;;;;;;;0.64;88.26;100406.53;1756668;81;21202;-87
2021/01/03 08:12:26;;;;;;;110.57;42.70;;;;;;;0.64;88.27;100407.01;1757334;79;21128;-87
2021/01/03 08:15:11;;;;;;;122.37;43.78;;;;;;;0.63;88.28;100407.98;1756888;81;21628;-87
2021/01/03 08:17:49;;;;;;;106.52;40.92;;;;;;;0.71;88.28;100407.79;1811107;77;22728;-87
2021/01/03 08:20:24;;;;;;;109.70;42.90;;;;;;;0.69;88.28;100416.72;1796752;79;21128;-86
2021/01/03 08:22:50;;;;;;;104.27;38.88;;;;;;;0.71;88.28;100422.69;1794659;80;21644;-87
2021/01/03 08:25:24;;;;;;;106.00;39.40;;;;;;;0.71;88.28;100409.10;1759926;80;21159;-87
2021/01/03 08:28:17;;;;;;;111.40;48.13;;;;;;;0.79;88.29;100414.66;1795078;77;28584;-87
2021/01/03 08:30:43;;;;;;;113.03;44.73;;;;;;;0.82;88.28;100409.66;1798874;79;21105;-87
2021/01/03 08:33:23;;;;;;;114.00;46.35;;;;;;;0.84;88.29;100411.73;1798862;79;21545;-87
2021/01/03 08:35:49;;;;;;;118.65;42.00;;;;;;;0.84;88.30;100419.59;1774601;79;21596;-87
2021/01/03 08:38:27;;;;;;;102.42;41.05;;;;;;;0.82;88.31;100421.00;1765083;81;21176;-88
2021/01/03 08:40:53;;;;;;;99.80;37.30;;;;;;;0.83;88.30;100433.66;1765454;81;21149;-87
2021/01/03 08:43:23;;;;;;;115.30;40.50;;;;;;;0.82;88.30;100446.41;1733432;81;21132;-87
2021/01/03 08:45:49;;;;;;;156.85;65.55;;;;;;;0.81;88.29;100454.75;1765409;81;22089;-87
2021/01/03 08:48:22;;;;;;;167.30;76.00;;;;;;;0.82;88.29;100455.59;1765456;81;21195;-86
2021/01/03 08:50:49;;;;;;;123.00;49.03;;;;;;;0.82;88.28;100465.62;1766277;79;21143;-88
2021/01/03 08:53:21;;;;;;;111.15;46.80;;;;;;;0.81;88.28;100466.56;1733298;81;21751;-87
2021/01/03 08:55:48;;;;;;;114.50;45.58;;;;;;;0.83;88.30;100469.09;1773100;79;21592;-87
2021/01/03 08:58:19;;;;;;;120.97;46.60;;;;;;;0.81;88.27;100472.31;1797082;79;21611;-86
2021/01/03 09:00:52;;;;;;;99.95;37.70;;;;;;;0.81;88.27;100471.00;1772430;79;21205;-86
2021/01/03 09:03:19;;;;;;;135.52;59.55;;;;;;;0.81;88.28;100477.56;1764762;79;21224;-86
2021/01/03 09:05:48;;;;;;;120.17;47.27;;;;;;;0.81;88.28;100480.19;1780742;79;21699;-87
2021/01/03 09:08:26;;;;;;;113.37;44.10;;;;;;;0.81;88.27;100485.44;1761776;80;21131;-86
2021/01/03 09:10:52;;;;;;;119.20;46.23;;;;;;;0.81;88.27;100481.50;1788236;78;21278;-86
2021/01/03 09:13:25;;;;;;;115.60;47.60;;;;;;;0.82;88.28;100491.03;1700820;81;21135;-86
2021/01/03 09:16:24;;;;;;;107.85;44.13;;;;;;;0.81;88.28;100482.31;1764948;80;21123;-86
2021/01/03 09:19:12;;;;;;;121.20;48.25;;;;;;;0.82;88.27;100489.72;1757368;80;21237;-87
2021/01/03 09:21:50;;;;;;;117.70;47.93;;;;;;;0.83;88.30;100498.81;1756209;81;21140;-86
2021/01/03 09:24:25;;;;;;;115.22;42.70;;;;;;;0.80;88.28;100492.47;1755762;81;21249;-85
2021/01/03 09:26:52;;;;;;;125.55;50.92;;;;;;;0.79;88.30;100491.24;1748459;81;21172;-85
2021/01/03 09:29:26;;;;;;;102.78;39.20;;;;;;;0.77;88.26;100489.21;1738034;82;21586;-85
2021/01/03 09:32:12;;;;;;;99.80;37.78;;;;;;;0.76;88.27;100493.62;1737784;82;21216;-85
2021/01/03 09:34:52;;;;;;;99.42;38.78;;;;;;;0.74;88.29;100492.05;1738280;82;21124;-86
2021/01/03 09:37:26;;;;;;;98.22;38.90;;;;;;;0.72;88.27;100491.30;1741665;81;21250;-85
2021/01/03 09:40:34;;;;;;;91.25;37.17;;;;;;;0.72;88.27;100491.30;1746245;81;21677;-86
2021/01/03 09:43:39;;;;;;;97.33;40.40;;;;;;;0.71;88.27;100487.83;1746195;81;21622;-85
2021/01/03 09:46:17;;;;;;;97.57;38.65;;;;;;;0.70;88.26;100486.17;1745968;81;21236;-87
2021/01/03 09:48:43;;;;;;;97.08;40.52;;;;;;;0.69;88.26;100483.17;1702457;82;21172;-86
2021/01/03 09:51:32;;;;;;;92.37;38.88;;;;;;;0.65;88.26;100479.08;1746197;82;21202;-86
2021/01/03 09:54:10;;;;;;;91.67;39.63;;;;;;;0.65;88.27;100474.30;1745984;82;21195;-86
2021/01/03 09:56:38;;;;;;;75.90;33.08;;;;;;;0.61;88.25;100471.04;1746140;82;21149;-86
2021/01/03 09:59:16;;;;;;;82.57;34.18;;;;;;;0.61;88.24;100464.95;1716926;82;21143;-86
2021/01/03 10:01:46;;;;;;;79.22;32.05;;;;;;;0.63;88.23;100465.70;1745205;81;21176;-85
2021/01/03 10:04:26;;;;;;;80.28;34.15;;;;;;;0.63;88.22;100461.30;1753918;81;21442;-86
2021/01/03 10:07:13;;;;;;;116.77;48.35;;;;;;;0.65;88.21;100462.48;1733198;81;21228;-87
2021/01/03 10:09:40;;;;;;;105.95;45.25;;;;;;;0.67;88.21;100463.23;1733646;81;21145;-87
2021/01/03 10:12:37;;;;;;;103.78;41.53;;;;;;;0.67;88.22;100468.48;1733500;82;21216;-87
2021/01/03 10:15:12;;;;;;;102.30;44.30;;;;;;;0.66;88.22;100464.17;1733493;81;21204;-86
2021/01/03 10:17:41;;;;;;;84.83;36.17;;;;;;;0.66;88.24;100463.70;1733576;82;21220;-86
2021/01/03 10:20:18;;;;;;;90.83;34.98;;;;;;;0.66;88.24;100462.39;1733563;82;21606;-87
2021/01/03 10:22:44;;;;;;;76.10;31.82;;;;;;;0.65;88.22;100457.23;1732530;81;21638;-87
2021/01/03 10:25:15;;;;;;;84.32;40.03;;;;;;;0.64;88.24;100451.14;1733250;82;21612;-87
2021/01/03 10:28:10;;;;;;;75.95;34.40;;;;;;;0.63;88.22;100450.80;1746413;81;21616;-87
2021/01/03 10:30:37;;;;;;;70.72;28.65;;;;;;;0.62;88.21;100440.40;1755580;81;21250;-86
2021/01/03 10:33:03;;;;;;;82.97;35.13;;;;;;;0.65;88.20;100434.94;1755494;81;21167;-87
2021/01/03 10:35:29;;;;;;;85.85;36.85;;;;;;;0.66;88.22;100436.63;1755457;81;21152;-86
2021/01/03 10:37:56;;;;;;;84.87;35.75;;;;;;;0.66;88.23;100434.00;1755571;81;21180;-86
2021/01/03 10:40:22;;;;;;;84.07;41.23;;;;;;;0.68;88.22;100424.22;1755747;81;21151;-87
2021/01/03 10:42:49;;;;;;;70.60;31.12;;;;;;;0.70;88.22;100422.34;1755483;81;22149;-87
2021/01/03 10:45:18;;;;;;;77.72;34.35;;;;;;;0.70;88.22;100414.47;1755514;81;21210;-86
2021/01/03 10:47:44;;;;;;;61.75;30.08;;;;;;;0.68;88.24;100411.10;1755368;81;21588;-87
2021/01/03 10:50:12;;;;;;;71.28;30.32;;;;;;;0.68;88.22;100410.63;1778256;80;21192;-86
2021/01/03 10:52:38;;;;;;;72.82;32.05;;;;;;;0.70;88.24;100409.23;1748166;82;21129;-87
2021/01/03 10:55:06;;;;;;;65.05;29.20;;;;;;;0.70;88.24;100411.85;1787337;80;21164;-86
2021/01/03 10:57:32;;;;;;;68.55;32.23;;;;;;;0.72;88.23;100395.52;1784940;80;21152;-86
2021/01/03 10:59:59;;;;;;;70.20;32.90;;;;;;;0.73;88.24;100396.73;1748566;81;21160;-86
2021/01/03 11:02:26;;;;;;;64.90;32.53;;;;;;;0.75;88.25;100399.23;1748625;81;21152;-86
2021/01/03 11:04:52;;;;;;;68.47;32.65;;;;;;;0.75;88.25;100386.11;1748599;81;21581;-86
2021/01/03 11:07:19;;;;;;;69.97;33.95;;;;;;;0.74;88.24;100383.14;1753137;80;21208;-87
2021/01/03 11:09:46;;;;;;;68.70;30.82;;;;;;;0.76;88.25;100388.64;1787579;80;21192;-87
2021/01/03 11:12:13;;;;;;;67.92;30.45;;;;;;;0.77;88.24;100392.95;1753187;80;21207;-86
2021/01/03 11:14:40;;;;;;;60.30;29.72;;;;;;;0.77;88.26;100381.61;1787786;80;21200;-87
2021/01/03 11:17:08;;;;;;;64.77;28.73;;;;;;;0.78;88.24;100383.27;1787770;80;21159;-87
2021/01/03 11:19:34;;;;;;;57.33;23.87;;;;;;;0.80;88.25;100378.76;1779467;80;21235;-87
2021/01/03 11:22:03;;;;;;;69.07;33.48;;;;;;;0.82;88.24;100379.48;1782606;80;21148;-87
2021/01/03 11:24:29;;;;;;;72.70;31.97;;;;;;;0.83;88.26;100379.38;1780940;79;21155;-86
2021/01/03 11:26:55;;;;;;;67.65;28.20;;;;;;;0.85;88.27;100379.25;1782413;80;21223;-86
2021/01/03 11:29:25;;;;;;;61.63;31.17;;;;;;;0.86;88.28;100375.69;1786405;80;21512;-87
2021/01/03 11:31:54;;;;;;;79.23;36.07;;;;;;;0.85;88.28;100368.76;1786679;80;21954;-86
2021/01/03 11:34:27;;;;;;;68.45;28.50;;;;;;;0.86;88.25;100364.73;1785240;80;21302;-75